sensor_id;sensor_type;location;lat;lon;timestamp;P1;durP1;ratioP1;P2;durP2;ratioP2
9675;SDS011;4876;42.656;23.292;2023-03-02T00:02:11;5.87;;;4.53;;
9675;SDS011;4876;42.656;23.292;2023-03-02T00:04:42;6.20;;;4.60;;
9675;SDS011;4876;42.656;23.292;2023-03-02T00:07:13;4.27;;;3.23;;
9675;SDS011;4876;42.656;23.292;2023-03-02T00:09:43;6.23;;;4.40;;
9675;SDS011;4876;42.656;23.292;2023-03-02T00:12:10;4.80;;;4.27;;
9675;SDS011;4876;42.656;23.292;2023-03-02T00:14:40;7.93;;;4.40;;
9675;SDS011;4876;42.656;23.292;2023-03-02T00:17:09;5.17;;;4.17;;
9675;SDS011;4876;42.656;23.292;2023-03-02T00:19:37;7.57;;;5.03;;
9675;SDS011;4876;42.656;23.292;2023-03-02T00:22:04;6.47;;;4.80;;
9675;SDS011;4876;42.656;23.292;2023-03-02T00:24:30;5.40;;;4.30;;
9675;SDS011;4876;42.656;23.292;2023-03-02T00:26:57;6.40;;;4.90;;
9675;SDS011;4876;42.656;23.292;2023-03-02T00:29:25;6.90;;;4.80;;
9675;SDS011;4876;42.656;23.292;2023-03-02T00:31:52;6.70;;;4.30;;
9675;SDS011;4876;42.656;23.292;2023-03-02T00:34:21;5.63;;;4.20;;
9675;SDS011;4876;42.656;23.292;2023-03-02T00:36:48;5.33;;;4.07;;
9675;SDS011;4876;42.656;23.292;2023-03-02T00:39:15;6.10;;;4.20;;
9675;SDS011;4876;42.656;23.292;2023-03-02T00:41:44;3.47;;;2.77;;
9675;SDS011;4876;42.656;23.292;2023-03-02T00:44:12;5.07;;;3.83;;
9675;SDS011;4876;42.656;23.292;2023-03-02T00:46:42;4.13;;;3.57;;
9675;SDS011;4876;42.656;23.292;2023-03-02T00:49:10;4.53;;;3.67;;
9675;SDS011;4876;42.656;23.292;2023-03-02T00:51:38;3.27;;;2.63;;
9675;SDS011;4876;42.656;23.292;2023-03-02T00:54:08;3.67;;;2.20;;
9675;SDS011;4876;42.656;23.292;2023-03-02T00:56:46;4.90;;;1.90;;
9675;SDS011;4876;42.656;23.292;2023-03-02T00:59:16;5.77;;;3.70;;
9675;SDS011;4876;42.656;23.292;2023-03-02T01:02:19;4.20;;;3.30;;
9675;SDS011;4876;42.656;23.292;2023-03-02T01:05:25;4.20;;;3.80;;
9675;SDS011;4876;42.656;23.292;2023-03-02T01:08:05;4.80;;;2.97;;
9675;SDS011;4876;42.656;23.292;2023-03-02T01:10:33;2.90;;;1.33;;
9675;SDS011;4876;42.656;23.292;2023-03-02T01:13:04;4.43;;;3.43;;
9675;SDS011;4876;42.656;23.292;2023-03-02T01:15:31;5.77;;;3.27;;
9675;SDS011;4876;42.656;23.292;2023-03-02T01:18:02;5.17;;;3.60;;
9675;SDS011;4876;42.656;23.292;2023-03-02T01:20:29;3.73;;;2.43;;
9675;SDS011;4876;42.656;23.292;2023-03-02T01:22:57;5.23;;;3.57;;
9675;SDS011;4876;42.656;23.292;2023-03-02T01:25:26;3.37;;;2.87;;
9675;SDS011;4876;42.656;23.292;2023-03-02T01:27:53;4.63;;;3.07;;
9675;SDS011;4876;42.656;23.292;2023-03-02T01:30:22;4.30;;;3.47;;
9675;SDS011;4876;42.656;23.292;2023-03-02T01:32:49;4.63;;;3.90;;
9675;SDS011;4876;42.656;23.292;2023-03-02T01:35:15;4.93;;;3.77;;
9675;SDS011;4876;42.656;23.292;2023-03-02T01:37:43;4.17;;;2.97;;
9675;SDS011;4876;42.656;23.292;2023-03-02T01:40:11;4.30;;;2.97;;
9675;SDS011;4876;42.656;23.292;2023-03-02T01:42:44;4.43;;;3.33;;
9675;SDS011;4876;42.656;23.292;2023-03-02T01:48:11;5.00;;;3.57;;
9675;SDS011;4876;42.656;23.292;2023-03-02T01:50:43;4.00;;;3.20;;
9675;SDS011;4876;42.656;23.292;2023-03-02T01:53:13;3.50;;;3.00;;
9675;SDS011;4876;42.656;23.292;2023-03-02T01:55:43;3.57;;;2.90;;
9675;SDS011;4876;42.656;23.292;2023-03-02T01:58:13;2.50;;;2.30;;
9675;SDS011;4876;42.656;23.292;2023-03-02T02:00:43;3.67;;;2.97;;
9675;SDS011;4876;42.656;23.292;2023-03-02T02:06:27;3.30;;;2.47;;
9675;SDS011;4876;42.656;23.292;2023-03-02T02:08:57;2.33;;;2.13;;
9675;SDS011;4876;42.656;23.292;2023-03-02T02:11:26;3.17;;;2.50;;
9675;SDS011;4876;42.656;23.292;2023-03-02T02:13:55;2.70;;;2.27;;
9675;SDS011;4876;42.656;23.292;2023-03-02T02:16:23;2.20;;;1.97;;
9675;SDS011;4876;42.656;23.292;2023-03-02T02:18:51;4.50;;;2.33;;
9675;SDS011;4876;42.656;23.292;2023-03-02T02:21:18;2.73;;;2.07;;
9675;SDS011;4876;42.656;23.292;2023-03-02T02:23:47;2.13;;;1.93;;
9675;SDS011;4876;42.656;23.292;2023-03-02T02:26:23;3.37;;;2.70;;
9675;SDS011;4876;42.656;23.292;2023-03-02T02:28:55;2.97;;;2.30;;
9675;SDS011;4876;42.656;23.292;2023-03-02T02:31:28;2.30;;;2.03;;
9675;SDS011;4876;42.656;23.292;2023-03-02T02:34:00;4.17;;;2.27;;
9675;SDS011;4876;42.656;23.292;2023-03-02T02:36:41;3.17;;;2.50;;
9675;SDS011;4876;42.656;23.292;2023-03-02T02:39:13;3.27;;;2.03;;
9675;SDS011;4876;42.656;23.292;2023-03-02T02:41:45;2.20;;;1.80;;
9675;SDS011;4876;42.656;23.292;2023-03-02T02:44:14;6.17;;;2.80;;
9675;SDS011;4876;42.656;23.292;2023-03-02T02:46:42;3.00;;;2.70;;
9675;SDS011;4876;42.656;23.292;2023-03-02T02:49:14;3.43;;;2.30;;
9675;SDS011;4876;42.656;23.292;2023-03-02T02:51:51;3.03;;;2.43;;
9675;SDS011;4876;42.656;23.292;2023-03-02T02:54:18;1.80;;;1.33;;
9675;SDS011;4876;42.656;23.292;2023-03-02T02:56:46;3.10;;;1.90;;
9675;SDS011;4876;42.656;23.292;2023-03-02T02:59:15;3.40;;;2.70;;
9675;SDS011;4876;42.656;23.292;2023-03-02T03:01:46;3.87;;;2.63;;
9675;SDS011;4876;42.656;23.292;2023-03-02T03:04:16;3.43;;;3.00;;
9675;SDS011;4876;42.656;23.292;2023-03-02T03:06:48;4.07;;;2.93;;
9675;SDS011;4876;42.656;23.292;2023-03-02T03:09:17;3.80;;;3.13;;
9675;SDS011;4876;42.656;23.292;2023-03-02T03:11:45;3.27;;;2.53;;
9675;SDS011;4876;42.656;23.292;2023-03-02T03:14:16;3.37;;;2.20;;
9675;SDS011;4876;42.656;23.292;2023-03-02T03:16:45;3.60;;;2.40;;
9675;SDS011;4876;42.656;23.292;2023-03-02T03:19:15;8.43;;;3.07;;
9675;SDS011;4876;42.656;23.292;2023-03-02T03:21:46;4.00;;;2.50;;
9675;SDS011;4876;42.656;23.292;2023-03-02T03:24:16;6.30;;;2.17;;
9675;SDS011;4876;42.656;23.292;2023-03-02T03:26:44;3.43;;;2.40;;
9675;SDS011;4876;42.656;23.292;2023-03-02T03:29:12;3.47;;;2.67;;
9675;SDS011;4876;42.656;23.292;2023-03-02T03:31:40;3.83;;;2.73;;
9675;SDS011;4876;42.656;23.292;2023-03-02T03:34:07;3.10;;;2.47;;
9675;SDS011;4876;42.656;23.292;2023-03-02T03:36:34;1.40;;;1.30;;
9675;SDS011;4876;42.656;23.292;2023-03-02T03:39:02;3.97;;;2.90;;
9675;SDS011;4876;42.656;23.292;2023-03-02T03:41:31;1.87;;;1.63;;
9675;SDS011;4876;42.656;23.292;2023-03-02T03:43:58;3.73;;;2.70;;
9675;SDS011;4876;42.656;23.292;2023-03-02T03:46:26;3.67;;;2.43;;
9675;SDS011;4876;42.656;23.292;2023-03-02T03:48:53;2.20;;;1.90;;
9675;SDS011;4876;42.656;23.292;2023-03-02T03:51:20;4.43;;;3.20;;
9675;SDS011;4876;42.656;23.292;2023-03-02T03:53:47;4.13;;;3.20;;
9675;SDS011;4876;42.656;23.292;2023-03-02T03:56:24;6.17;;;2.37;;
9675;SDS011;4876;42.656;23.292;2023-03-02T03:58:51;2.73;;;2.10;;
9675;SDS011;4876;42.656;23.292;2023-03-02T04:01:33;4.63;;;3.17;;
9675;SDS011;4876;42.656;23.292;2023-03-02T04:04:02;3.40;;;2.70;;
9675;SDS011;4876;42.656;23.292;2023-03-02T04:06:29;3.93;;;2.37;;
9675;SDS011;4876;42.656;23.292;2023-03-02T04:08:56;3.43;;;2.60;;
9675;SDS011;4876;42.656;23.292;2023-03-02T04:11:29;2.13;;;1.67;;
9675;SDS011;4876;42.656;23.292;2023-03-02T04:13:56;2.47;;;1.87;;
9675;SDS011;4876;42.656;23.292;2023-03-02T04:16:23;3.33;;;2.80;;
9675;SDS011;4876;42.656;23.292;2023-03-02T04:18:51;5.30;;;2.37;;
9675;SDS011;4876;42.656;23.292;2023-03-02T04:21:18;2.33;;;2.13;;
9675;SDS011;4876;42.656;23.292;2023-03-02T04:23:46;3.00;;;2.60;;
9675;SDS011;4876;42.656;23.292;2023-03-02T04:26:13;2.53;;;2.30;;
9675;SDS011;4876;42.656;23.292;2023-03-02T04:28:40;4.07;;;3.20;;
9675;SDS011;4876;42.656;23.292;2023-03-02T04:31:06;3.67;;;2.73;;
9675;SDS011;4876;42.656;23.292;2023-03-02T04:33:33;3.90;;;3.03;;
9675;SDS011;4876;42.656;23.292;2023-03-02T04:36:01;3.43;;;3.13;;
9675;SDS011;4876;42.656;23.292;2023-03-02T04:38:28;2.40;;;2.17;;
9675;SDS011;4876;42.656;23.292;2023-03-02T04:40:55;3.60;;;2.80;;
9675;SDS011;4876;42.656;23.292;2023-03-02T04:43:22;3.03;;;2.40;;
9675;SDS011;4876;42.656;23.292;2023-03-02T04:45:51;3.87;;;3.17;;
9675;SDS011;4876;42.656;23.292;2023-03-02T04:48:18;4.73;;;2.90;;
9675;SDS011;4876;42.656;23.292;2023-03-02T04:50:47;3.37;;;3.07;;
9675;SDS011;4876;42.656;23.292;2023-03-02T04:53:15;4.87;;;4.20;;
9675;SDS011;4876;42.656;23.292;2023-03-02T04:55:42;4.20;;;3.67;;
9675;SDS011;4876;42.656;23.292;2023-03-02T04:58:08;5.97;;;4.00;;
9675;SDS011;4876;42.656;23.292;2023-03-02T05:00:35;5.33;;;3.93;;
9675;SDS011;4876;42.656;23.292;2023-03-02T05:03:02;4.67;;;3.43;;
9675;SDS011;4876;42.656;23.292;2023-03-02T05:05:30;4.30;;;3.90;;
9675;SDS011;4876;42.656;23.292;2023-03-02T05:07:56;5.10;;;3.87;;
9675;SDS011;4876;42.656;23.292;2023-03-02T05:10:25;7.70;;;4.00;;
9675;SDS011;4876;42.656;23.292;2023-03-02T05:12:53;4.53;;;3.90;;
9675;SDS011;4876;42.656;23.292;2023-03-02T05:15:22;5.93;;;4.70;;
9675;SDS011;4876;42.656;23.292;2023-03-02T05:17:50;6.07;;;4.40;;
9675;SDS011;4876;42.656;23.292;2023-03-02T05:20:17;7.07;;;4.97;;
9675;SDS011;4876;42.656;23.292;2023-03-02T05:22:45;6.30;;;5.37;;
9675;SDS011;4876;42.656;23.292;2023-03-02T05:25:12;6.70;;;5.17;;
9675;SDS011;4876;42.656;23.292;2023-03-02T05:27:40;9.07;;;5.57;;
9675;SDS011;4876;42.656;23.292;2023-03-02T05:30:07;6.47;;;5.77;;
9675;SDS011;4876;42.656;23.292;2023-03-02T05:32:35;7.93;;;5.67;;
9675;SDS011;4876;42.656;23.292;2023-03-02T05:35:02;9.10;;;6.90;;
9675;SDS011;4876;42.656;23.292;2023-03-02T05:37:29;7.33;;;6.50;;
9675;SDS011;4876;42.656;23.292;2023-03-02T05:39:55;5.23;;;4.73;;
9675;SDS011;4876;42.656;23.292;2023-03-02T05:42:22;5.37;;;4.87;;
9675;SDS011;4876;42.656;23.292;2023-03-02T05:44:50;6.53;;;5.40;;
9675;SDS011;4876;42.656;23.292;2023-03-02T05:47:17;3.83;;;2.83;;
9675;SDS011;4876;42.656;23.292;2023-03-02T05:49:44;7.20;;;6.10;;
9675;SDS011;4876;42.656;23.292;2023-03-02T05:52:11;5.43;;;4.20;;
9675;SDS011;4876;42.656;23.292;2023-03-02T05:54:37;7.13;;;5.57;;
9675;SDS011;4876;42.656;23.292;2023-03-02T05:57:04;9.17;;;7.10;;
9675;SDS011;4876;42.656;23.292;2023-03-02T05:59:32;8.07;;;6.83;;
9675;SDS011;4876;42.656;23.292;2023-03-02T06:02:00;9.40;;;7.30;;
9675;SDS011;4876;42.656;23.292;2023-03-02T06:04:27;8.23;;;7.17;;
9675;SDS011;4876;42.656;23.292;2023-03-02T06:06:54;8.23;;;7.40;;
9675;SDS011;4876;42.656;23.292;2023-03-02T06:09:20;7.50;;;6.80;;
9675;SDS011;4876;42.656;23.292;2023-03-02T06:11:47;6.90;;;5.43;;
9675;SDS011;4876;42.656;23.292;2023-03-02T06:14:15;4.07;;;3.67;;
9675;SDS011;4876;42.656;23.292;2023-03-02T06:16:42;8.20;;;6.10;;
9675;SDS011;4876;42.656;23.292;2023-03-02T06:19:10;11.03;;;4.00;;
9675;SDS011;4876;42.656;23.292;2023-03-02T06:21:37;8.37;;;6.70;;
9675;SDS011;4876;42.656;23.292;2023-03-02T06:24:04;5.60;;;4.60;;
9675;SDS011;4876;42.656;23.292;2023-03-02T06:26:31;6.50;;;5.43;;
9675;SDS011;4876;42.656;23.292;2023-03-02T06:28:57;9.50;;;6.30;;
9675;SDS011;4876;42.656;23.292;2023-03-02T06:31:24;5.17;;;3.70;;
9675;SDS011;4876;42.656;23.292;2023-03-02T06:33:51;10.17;;;5.50;;
9675;SDS011;4876;42.656;23.292;2023-03-02T06:36:19;5.90;;;4.43;;
9675;SDS011;4876;42.656;23.292;2023-03-02T06:38:46;9.40;;;6.73;;
9675;SDS011;4876;42.656;23.292;2023-03-02T06:41:13;8.23;;;6.30;;
9675;SDS011;4876;42.656;23.292;2023-03-02T06:43:40;6.37;;;4.53;;
9675;SDS011;4876;42.656;23.292;2023-03-02T06:46:07;9.13;;;6.63;;
9675;SDS011;4876;42.656;23.292;2023-03-02T06:48:34;6.47;;;4.97;;
9675;SDS011;4876;42.656;23.292;2023-03-02T06:51:00;8.60;;;5.73;;
9675;SDS011;4876;42.656;23.292;2023-03-02T06:53:29;6.23;;;4.80;;
9675;SDS011;4876;42.656;23.292;2023-03-02T06:55:55;7.83;;;6.53;;
9675;SDS011;4876;42.656;23.292;2023-03-02T06:58:22;8.47;;;5.40;;
9675;SDS011;4876;42.656;23.292;2023-03-02T07:00:49;9.23;;;6.97;;
9675;SDS011;4876;42.656;23.292;2023-03-02T07:03:16;7.97;;;5.53;;
9675;SDS011;4876;42.656;23.292;2023-03-02T07:05:42;8.03;;;6.40;;
9675;SDS011;4876;42.656;23.292;2023-03-02T07:08:09;8.70;;;6.93;;
9675;SDS011;4876;42.656;23.292;2023-03-02T07:10:37;6.87;;;5.70;;
9675;SDS011;4876;42.656;23.292;2023-03-02T07:13:04;7.73;;;6.57;;
9675;SDS011;4876;42.656;23.292;2023-03-02T07:15:31;5.33;;;4.50;;
9675;SDS011;4876;42.656;23.292;2023-03-02T07:17:57;8.37;;;5.53;;
9675;SDS011;4876;42.656;23.292;2023-03-02T07:20:24;9.10;;;6.43;;
9675;SDS011;4876;42.656;23.292;2023-03-02T07:22:51;6.13;;;4.83;;
9675;SDS011;4876;42.656;23.292;2023-03-02T07:25:18;7.50;;;5.80;;
9675;SDS011;4876;42.656;23.292;2023-03-02T07:27:46;11.20;;;6.33;;
9675;SDS011;4876;42.656;23.292;2023-03-02T07:30:13;6.80;;;4.90;;
9675;SDS011;4876;42.656;23.292;2023-03-02T07:32:43;7.30;;;6.33;;
9675;SDS011;4876;42.656;23.292;2023-03-02T07:35:09;8.37;;;5.80;;
9675;SDS011;4876;42.656;23.292;2023-03-02T07:37:36;9.33;;;6.63;;
9675;SDS011;4876;42.656;23.292;2023-03-02T07:40:03;10.17;;;4.83;;
9675;SDS011;4876;42.656;23.292;2023-03-02T07:42:32;4.90;;;3.87;;
9675;SDS011;4876;42.656;23.292;2023-03-02T07:45:00;7.17;;;4.50;;
9675;SDS011;4876;42.656;23.292;2023-03-02T07:47:28;8.63;;;5.57;;
9675;SDS011;4876;42.656;23.292;2023-03-02T07:49:55;9.43;;;7.47;;
9675;SDS011;4876;42.656;23.292;2023-03-02T07:52:22;8.50;;;6.63;;
9675;SDS011;4876;42.656;23.292;2023-03-02T07:54:49;9.07;;;7.00;;
9675;SDS011;4876;42.656;23.292;2023-03-02T07:57:16;6.93;;;5.03;;
9675;SDS011;4876;42.656;23.292;2023-03-02T07:59:43;7.97;;;5.57;;
9675;SDS011;4876;42.656;23.292;2023-03-02T08:02:11;14.97;;;9.17;;
9675;SDS011;4876;42.656;23.292;2023-03-02T08:04:40;10.70;;;8.53;;
9675;SDS011;4876;42.656;23.292;2023-03-02T08:07:08;17.30;;;9.00;;
9675;SDS011;4876;42.656;23.292;2023-03-02T08:09:35;10.37;;;7.53;;
9675;SDS011;4876;42.656;23.292;2023-03-02T08:12:03;9.03;;;6.73;;
9675;SDS011;4876;42.656;23.292;2023-03-02T08:14:30;9.37;;;5.33;;
9675;SDS011;4876;42.656;23.292;2023-03-02T08:16:57;8.60;;;5.63;;
9675;SDS011;4876;42.656;23.292;2023-03-02T08:19:25;8.90;;;6.07;;
9675;SDS011;4876;42.656;23.292;2023-03-02T08:21:52;8.10;;;5.53;;
9675;SDS011;4876;42.656;23.292;2023-03-02T08:24:18;10.57;;;6.67;;
9675;SDS011;4876;42.656;23.292;2023-03-02T08:26:45;8.87;;;6.50;;
9675;SDS011;4876;42.656;23.292;2023-03-02T08:29:12;5.23;;;4.27;;
9675;SDS011;4876;42.656;23.292;2023-03-02T08:31:39;14.63;;;7.57;;
9675;SDS011;4876;42.656;23.292;2023-03-02T08:34:06;11.30;;;7.37;;
9675;SDS011;4876;42.656;23.292;2023-03-02T08:36:34;7.60;;;6.33;;
9675;SDS011;4876;42.656;23.292;2023-03-02T08:39:00;5.73;;;4.70;;
9675;SDS011;4876;42.656;23.292;2023-03-02T08:41:27;6.53;;;3.93;;
9675;SDS011;4876;42.656;23.292;2023-03-02T08:43:54;6.10;;;4.90;;
9675;SDS011;4876;42.656;23.292;2023-03-02T08:46:21;5.80;;;5.20;;
9675;SDS011;4876;42.656;23.292;2023-03-02T08:48:48;9.60;;;6.07;;
9675;SDS011;4876;42.656;23.292;2023-03-02T08:51:15;4.80;;;4.00;;
9675;SDS011;4876;42.656;23.292;2023-03-02T08:53:46;10.73;;;6.67;;
9675;SDS011;4876;42.656;23.292;2023-03-02T08:56:17;6.90;;;5.17;;
9675;SDS011;4876;42.656;23.292;2023-03-02T08:58:46;8.07;;;5.70;;
9675;SDS011;4876;42.656;23.292;2023-03-02T09:01:14;7.30;;;5.10;;
9675;SDS011;4876;42.656;23.292;2023-03-02T09:03:42;9.47;;;7.77;;
9675;SDS011;4876;42.656;23.292;2023-03-02T09:06:09;11.07;;;7.17;;
9675;SDS011;4876;42.656;23.292;2023-03-02T09:08:36;8.53;;;6.10;;
9675;SDS011;4876;42.656;23.292;2023-03-02T09:11:04;6.57;;;5.33;;
9675;SDS011;4876;42.656;23.292;2023-03-02T09:13:32;13.63;;;8.10;;
9675;SDS011;4876;42.656;23.292;2023-03-02T09:15:59;10.43;;;5.80;;
9675;SDS011;4876;42.656;23.292;2023-03-02T09:18:26;5.50;;;4.47;;
9675;SDS011;4876;42.656;23.292;2023-03-02T09:20:54;5.80;;;4.63;;
9675;SDS011;4876;42.656;23.292;2023-03-02T09:23:25;7.77;;;5.87;;
9675;SDS011;4876;42.656;23.292;2023-03-02T09:25:52;6.30;;;5.30;;
9675;SDS011;4876;42.656;23.292;2023-03-02T09:28:21;7.90;;;6.37;;
9675;SDS011;4876;42.656;23.292;2023-03-02T09:30:48;7.17;;;5.77;;
9675;SDS011;4876;42.656;23.292;2023-03-02T09:33:16;7.30;;;5.97;;
9675;SDS011;4876;42.656;23.292;2023-03-02T09:35:43;9.27;;;7.03;;
9675;SDS011;4876;42.656;23.292;2023-03-02T09:38:10;7.77;;;5.93;;
9675;SDS011;4876;42.656;23.292;2023-03-02T09:40:43;6.80;;;6.10;;
9675;SDS011;4876;42.656;23.292;2023-03-02T09:43:26;9.40;;;7.73;;
9675;SDS011;4876;42.656;23.292;2023-03-02T09:46:08;5.40;;;4.53;;
9675;SDS011;4876;42.656;23.292;2023-03-02T09:48:43;10.40;;;7.40;;
9675;SDS011;4876;42.656;23.292;2023-03-02T09:51:30;6.60;;;4.60;;
9675;SDS011;4876;42.656;23.292;2023-03-02T09:54:02;9.00;;;5.90;;
9675;SDS011;4876;42.656;23.292;2023-03-02T09:56:51;5.83;;;4.67;;
9675;SDS011;4876;42.656;23.292;2023-03-02T09:59:24;4.93;;;4.43;;
9675;SDS011;4876;42.656;23.292;2023-03-02T10:01:55;6.00;;;5.33;;
9675;SDS011;4876;42.656;23.292;2023-03-02T10:04:27;8.13;;;6.73;;
9675;SDS011;4876;42.656;23.292;2023-03-02T10:06:57;7.53;;;5.77;;
9675;SDS011;4876;42.656;23.292;2023-03-02T10:09:36;10.17;;;5.47;;
9675;SDS011;4876;42.656;23.292;2023-03-02T10:12:07;8.77;;;7.00;;
9675;SDS011;4876;42.656;23.292;2023-03-02T10:14:50;7.70;;;6.40;;
9675;SDS011;4876;42.656;23.292;2023-03-02T10:17:34;6.53;;;4.57;;
9675;SDS011;4876;42.656;23.292;2023-03-02T10:20:08;7.13;;;5.53;;
9675;SDS011;4876;42.656;23.292;2023-03-02T10:22:43;7.17;;;5.93;;
9675;SDS011;4876;42.656;23.292;2023-03-02T10:25:19;7.00;;;5.70;;
9675;SDS011;4876;42.656;23.292;2023-03-02T10:27:56;8.63;;;6.13;;
9675;SDS011;4876;42.656;23.292;2023-03-02T10:30:29;8.77;;;5.47;;
9675;SDS011;4876;42.656;23.292;2023-03-02T10:32:58;6.07;;;4.63;;
9675;SDS011;4876;42.656;23.292;2023-03-02T10:35:28;8.43;;;4.40;;
9675;SDS011;4876;42.656;23.292;2023-03-02T10:37:57;6.53;;;4.40;;
9675;SDS011;4876;42.656;23.292;2023-03-02T10:40:29;7.70;;;6.20;;
9675;SDS011;4876;42.656;23.292;2023-03-02T10:43:05;9.53;;;3.93;;
9675;SDS011;4876;42.656;23.292;2023-03-02T10:45:38;6.43;;;4.93;;
9675;SDS011;4876;42.656;23.292;2023-03-02T10:48:05;4.50;;;3.80;;
9675;SDS011;4876;42.656;23.292;2023-03-02T10:50:33;6.03;;;4.53;;
9675;SDS011;4876;42.656;23.292;2023-03-02T10:53:00;9.53;;;4.80;;
9675;SDS011;4876;42.656;23.292;2023-03-02T10:55:27;7.10;;;4.10;;
9675;SDS011;4876;42.656;23.292;2023-03-02T10:57:57;11.53;;;6.10;;
9675;SDS011;4876;42.656;23.292;2023-03-02T11:00:27;6.37;;;4.33;;
9675;SDS011;4876;42.656;23.292;2023-03-02T11:02:57;5.80;;;4.27;;
9675;SDS011;4876;42.656;23.292;2023-03-02T11:05:27;4.67;;;3.80;;
9675;SDS011;4876;42.656;23.292;2023-03-02T11:07:56;4.17;;;3.37;;
9675;SDS011;4876;42.656;23.292;2023-03-02T11:10:26;7.47;;;5.10;;
9675;SDS011;4876;42.656;23.292;2023-03-02T11:12:56;5.53;;;3.63;;
9675;SDS011;4876;42.656;23.292;2023-03-02T11:15:25;2.87;;;2.63;;
9675;SDS011;4876;42.656;23.292;2023-03-02T11:17:55;4.47;;;3.53;;
9675;SDS011;4876;42.656;23.292;2023-03-02T11:20:29;7.83;;;5.93;;
9675;SDS011;4876;42.656;23.292;2023-03-02T11:22:59;5.60;;;4.67;;
9675;SDS011;4876;42.656;23.292;2023-03-02T11:25:34;7.60;;;5.23;;
9675;SDS011;4876;42.656;23.292;2023-03-02T11:31:01;4.50;;;3.63;;
9675;SDS011;4876;42.656;23.292;2023-03-02T11:33:34;6.83;;;5.20;;
9675;SDS011;4876;42.656;23.292;2023-03-02T11:36:10;5.67;;;4.97;;
9675;SDS011;4876;42.656;23.292;2023-03-02T11:38:45;4.90;;;3.97;;
9675;SDS011;4876;42.656;23.292;2023-03-02T11:44:02;5.47;;;3.50;;
9675;SDS011;4876;42.656;23.292;2023-03-02T11:46:37;7.90;;;5.13;;
9675;SDS011;4876;42.656;23.292;2023-03-02T11:49:10;9.13;;;4.40;;
9675;SDS011;4876;42.656;23.292;2023-03-02T11:51:41;15.17;;;4.80;;
9675;SDS011;4876;42.656;23.292;2023-03-02T11:54:26;7.83;;;6.30;;
9675;SDS011;4876;42.656;23.292;2023-03-02T11:56:58;6.83;;;6.00;;
9675;SDS011;4876;42.656;23.292;2023-03-02T11:59:26;7.20;;;6.00;;
9675;SDS011;4876;42.656;23.292;2023-03-02T12:01:53;6.17;;;4.43;;
9675;SDS011;4876;42.656;23.292;2023-03-02T12:04:28;7.03;;;5.57;;
9675;SDS011;4876;42.656;23.292;2023-03-02T12:06:57;8.87;;;6.17;;
9675;SDS011;4876;42.656;23.292;2023-03-02T12:09:30;6.13;;;4.27;;
9675;SDS011;4876;42.656;23.292;2023-03-02T12:12:00;5.40;;;3.23;;
9675;SDS011;4876;42.656;23.292;2023-03-02T12:14:48;5.00;;;3.80;;
9675;SDS011;4876;42.656;23.292;2023-03-02T12:17:17;7.27;;;5.80;;
9675;SDS011;4876;42.656;23.292;2023-03-02T12:19:49;6.03;;;4.30;;
9675;SDS011;4876;42.656;23.292;2023-03-02T12:22:24;7.90;;;5.37;;
9675;SDS011;4876;42.656;23.292;2023-03-02T12:24:58;5.20;;;3.47;;
9675;SDS011;4876;42.656;23.292;2023-03-02T12:27:32;12.47;;;5.93;;
9675;SDS011;4876;42.656;23.292;2023-03-02T12:30:09;5.83;;;3.97;;
9675;SDS011;4876;42.656;23.292;2023-03-02T12:32:57;6.97;;;5.30;;
9675;SDS011;4876;42.656;23.292;2023-03-02T12:35:28;9.47;;;4.60;;
9675;SDS011;4876;42.656;23.292;2023-03-02T12:37:57;5.93;;;4.13;;
9675;SDS011;4876;42.656;23.292;2023-03-02T12:40:36;11.00;;;5.30;;
9675;SDS011;4876;42.656;23.292;2023-03-02T12:43:19;6.80;;;4.17;;
9675;SDS011;4876;42.656;23.292;2023-03-02T12:45:56;16.63;;;4.87;;
9675;SDS011;4876;42.656;23.292;2023-03-02T12:48:42;8.50;;;4.47;;
9675;SDS011;4876;42.656;23.292;2023-03-02T12:51:15;5.47;;;3.63;;
9675;SDS011;4876;42.656;23.292;2023-03-02T12:53:46;7.40;;;4.47;;
9675;SDS011;4876;42.656;23.292;2023-03-02T12:56:20;5.93;;;4.57;;
9675;SDS011;4876;42.656;23.292;2023-03-02T12:58:48;7.50;;;4.17;;
9675;SDS011;4876;42.656;23.292;2023-03-02T13:01:19;5.23;;;4.27;;
9675;SDS011;4876;42.656;23.292;2023-03-02T13:03:47;5.23;;;3.60;;
9675;SDS011;4876;42.656;23.292;2023-03-02T13:06:16;7.37;;;4.43;;
9675;SDS011;4876;42.656;23.292;2023-03-02T13:08:44;13.00;;;5.80;;
9675;SDS011;4876;42.656;23.292;2023-03-02T13:11:13;5.43;;;3.27;;
9675;SDS011;4876;42.656;23.292;2023-03-02T13:13:47;8.10;;;5.60;;
9675;SDS011;4876;42.656;23.292;2023-03-02T13:16:19;6.37;;;4.43;;
9675;SDS011;4876;42.656;23.292;2023-03-02T13:18:47;7.80;;;5.17;;
9675;SDS011;4876;42.656;23.292;2023-03-02T13:21:19;8.60;;;4.07;;
9675;SDS011;4876;42.656;23.292;2023-03-02T13:23:50;7.33;;;5.10;;
9675;SDS011;4876;42.656;23.292;2023-03-02T13:26:23;5.57;;;4.70;;
9675;SDS011;4876;42.656;23.292;2023-03-02T13:29:02;6.83;;;5.03;;
9675;SDS011;4876;42.656;23.292;2023-03-02T13:31:30;6.83;;;4.37;;
9675;SDS011;4876;42.656;23.292;2023-03-02T13:33:58;6.57;;;4.57;;
9675;SDS011;4876;42.656;23.292;2023-03-02T13:36:27;7.10;;;4.20;;
9675;SDS011;4876;42.656;23.292;2023-03-02T13:38:56;7.27;;;5.30;;
9675;SDS011;4876;42.656;23.292;2023-03-02T13:41:26;5.47;;;4.00;;
9675;SDS011;4876;42.656;23.292;2023-03-02T13:43:55;6.43;;;5.30;;
9675;SDS011;4876;42.656;23.292;2023-03-02T13:46:24;4.77;;;4.17;;
9675;SDS011;4876;42.656;23.292;2023-03-02T13:48:59;10.00;;;6.60;;
9675;SDS011;4876;42.656;23.292;2023-03-02T13:51:30;8.13;;;5.53;;
9675;SDS011;4876;42.656;23.292;2023-03-02T13:54:01;8.47;;;5.23;;
9675;SDS011;4876;42.656;23.292;2023-03-02T13:56:30;7.27;;;4.30;;
9675;SDS011;4876;42.656;23.292;2023-03-02T13:58:59;8.50;;;4.70;;
9675;SDS011;4876;42.656;23.292;2023-03-02T14:01:26;7.70;;;6.17;;
9675;SDS011;4876;42.656;23.292;2023-03-02T14:03:53;8.67;;;6.03;;
9675;SDS011;4876;42.656;23.292;2023-03-02T14:06:20;9.03;;;6.13;;
9675;SDS011;4876;42.656;23.292;2023-03-02T14:08:49;9.70;;;6.33;;
9675;SDS011;4876;42.656;23.292;2023-03-02T14:11:16;8.50;;;5.47;;
9675;SDS011;4876;42.656;23.292;2023-03-02T14:13:44;6.30;;;5.20;;
9675;SDS011;4876;42.656;23.292;2023-03-02T14:16:15;8.30;;;5.00;;
9675;SDS011;4876;42.656;23.292;2023-03-02T14:18:43;11.70;;;6.10;;
9675;SDS011;4876;42.656;23.292;2023-03-02T14:21:11;7.43;;;5.33;;
9675;SDS011;4876;42.656;23.292;2023-03-02T14:23:39;6.67;;;4.60;;
9675;SDS011;4876;42.656;23.292;2023-03-02T14:26:14;12.60;;;6.93;;
9675;SDS011;4876;42.656;23.292;2023-03-02T14:28:48;7.87;;;5.33;;
9675;SDS011;4876;42.656;23.292;2023-03-02T14:31:15;7.30;;;5.30;;
9675;SDS011;4876;42.656;23.292;2023-03-02T14:33:42;10.57;;;6.67;;
9675;SDS011;4876;42.656;23.292;2023-03-02T14:36:10;10.83;;;6.73;;
9675;SDS011;4876;42.656;23.292;2023-03-02T14:38:40;8.30;;;5.53;;
9675;SDS011;4876;42.656;23.292;2023-03-02T14:41:09;11.73;;;8.13;;
9675;SDS011;4876;42.656;23.292;2023-03-02T14:43:42;18.83;;;10.43;;
9675;SDS011;4876;42.656;23.292;2023-03-02T14:46:08;11.63;;;7.07;;
9675;SDS011;4876;42.656;23.292;2023-03-02T14:48:35;10.30;;;7.60;;
9675;SDS011;4876;42.656;23.292;2023-03-02T14:51:02;8.57;;;6.07;;
9675;SDS011;4876;42.656;23.292;2023-03-02T14:53:30;10.83;;;7.93;;
9675;SDS011;4876;42.656;23.292;2023-03-02T14:56:00;12.47;;;8.67;;
9675;SDS011;4876;42.656;23.292;2023-03-02T14:58:28;9.47;;;5.23;;
9675;SDS011;4876;42.656;23.292;2023-03-02T15:00:57;10.53;;;7.73;;
9675;SDS011;4876;42.656;23.292;2023-03-02T15:03:24;5.73;;;4.60;;
9675;SDS011;4876;42.656;23.292;2023-03-02T15:05:52;9.10;;;6.20;;
9675;SDS011;4876;42.656;23.292;2023-03-02T15:08:19;10.20;;;6.97;;
9675;SDS011;4876;42.656;23.292;2023-03-02T15:10:47;9.83;;;6.90;;
9675;SDS011;4876;42.656;23.292;2023-03-02T15:13:15;13.07;;;7.20;;
9675;SDS011;4876;42.656;23.292;2023-03-02T15:15:43;18.20;;;7.83;;
9675;SDS011;4876;42.656;23.292;2023-03-02T15:18:11;10.33;;;7.43;;
9675;SDS011;4876;42.656;23.292;2023-03-02T15:20:41;7.73;;;5.53;;
9675;SDS011;4876;42.656;23.292;2023-03-02T15:23:08;13.20;;;8.03;;
9675;SDS011;4876;42.656;23.292;2023-03-02T15:25:34;11.43;;;6.17;;
9675;SDS011;4876;42.656;23.292;2023-03-02T15:28:01;11.17;;;7.10;;